sensor_id;sensor_type;location;lat;lon;timestamp;temperature;humidity
7708;DHT22;3896;48.758;8.888;2023-07-31T00:00:04;16.90;77.70
7708;DHT22;3896;48.758;8.888;2023-07-31T00:02:30;17.00;78.20
7708;DHT22;3896;48.758;8.888;2023-07-31T00:04:55;17.00;78.90
7708;DHT22;3896;48.758;8.888;2023-07-31T00:07:21;16.90;78.70
7708;DHT22;3896;48.758;8.888;2023-07-31T00:09:46;16.90;79.00
7708;DHT22;3896;48.758;8.888;2023-07-31T00:12:12;16.90;78.90
7708;DHT22;3896;48.758;8.888;2023-07-31T00:14:37;16.90;79.00
7708;DHT22;3896;48.758;8.888;2023-07-31T00:17:03;16.90;79.30
7708;DHT22;3896;48.758;8.888;2023-07-31T00:19:29;16.90;79.40
7708;DHT22;3896;48.758;8.888;2023-07-31T00:21:54;16.90;79.50
7708;DHT22;3896;48.758;8.888;2023-07-31T00:24:20;16.80;79.90
7708;DHT22;3896;48.758;8.888;2023-07-31T00:26:45;16.80;80.00
7708;DHT22;3896;48.758;8.888;2023-07-31T00:29:11;16.70;80.00
7708;DHT22;3896;48.758;8.888;2023-07-31T00:31:36;16.70;80.00
7708;DHT22;3896;48.758;8.888;2023-07-31T00:34:02;16.70;80.10
7708;DHT22;3896;48.758;8.888;2023-07-31T00:36:27;16.70;80.40
7708;DHT22;3896;48.758;8.888;2023-07-31T00:38:53;16.60;80.40
7708;DHT22;3896;48.758;8.888;2023-07-31T00:41:18;16.60;80.40
7708;DHT22;3896;48.758;8.888;2023-07-31T00:43:44;16.60;80.50
7708;DHT22;3896;48.758;8.888;2023-07-31T00:46:09;16.60;80.70
7708;DHT22;3896;48.758;8.888;2023-07-31T00:48:35;16.60;81.00
7708;DHT22;3896;48.758;8.888;2023-07-31T00:51:02;16.60;81.00
7708;DHT22;3896;48.758;8.888;2023-07-31T00:53:28;16.50;81.00
7708;DHT22;3896;48.758;8.888;2023-07-31T00:55:54;16.60;82.30
7708;DHT22;3896;48.758;8.888;2023-07-31T00:58:19;16.50;81.70
7708;DHT22;3896;48.758;8.888;2023-07-31T01:00:45;16.50;82.20
7708;DHT22;3896;48.758;8.888;2023-07-31T01:03:11;16.40;82.30
7708;DHT22;3896;48.758;8.888;2023-07-31T01:08:57;16.30;83.10
7708;DHT22;3896;48.758;8.888;2023-07-31T01:11:28;16.30;83.90
7708;DHT22;3896;48.758;8.888;2023-07-31T01:13:55;16.20;84.50
7708;DHT22;3896;48.758;8.888;2023-07-31T01:16:21;16.20;84.90
7708;DHT22;3896;48.758;8.888;2023-07-31T01:18:46;16.20;85.30
7708;DHT22;3896;48.758;8.888;2023-07-31T01:21:22;16.20;86.20
7708;DHT22;3896;48.758;8.888;2023-07-31T01:24:21;16.10;85.60
7708;DHT22;3896;48.758;8.888;2023-07-31T01:26:59;16.10;85.50
7708;DHT22;3896;48.758;8.888;2023-07-31T01:29:42;16.10;86.20
7708;DHT22;3896;48.758;8.888;2023-07-31T01:32:09;16.10;86.00
7708;DHT22;3896;48.758;8.888;2023-07-31T01:34:36;16.00;86.60
7708;DHT22;3896;48.758;8.888;2023-07-31T01:37:03;16.00;86.70
7708;DHT22;3896;48.758;8.888;2023-07-31T01:39:28;16.00;86.90
7708;DHT22;3896;48.758;8.888;2023-07-31T01:41:54;16.00;87.10
7708;DHT22;3896;48.758;8.888;2023-07-31T01:44:19;16.00;87.10
7708;DHT22;3896;48.758;8.888;2023-07-31T01:46:45;16.00;87.30
7708;DHT22;3896;48.758;8.888;2023-07-31T01:49:11;15.90;87.10
7708;DHT22;3896;48.758;8.888;2023-07-31T01:51:36;16.00;87.60
7708;DHT22;3896;48.758;8.888;2023-07-31T01:54:02;16.00;87.90
7708;DHT22;3896;48.758;8.888;2023-07-31T01:56:28;15.90;87.90
7708;DHT22;3896;48.758;8.888;2023-07-31T01:58:53;15.90;88.30
7708;DHT22;3896;48.758;8.888;2023-07-31T02:01:19;15.90;88.30
7708;DHT22;3896;48.758;8.888;2023-07-31T02:03:44;15.90;88.80
7708;DHT22;3896;48.758;8.888;2023-07-31T02:06:10;15.90;89.30
7708;DHT22;3896;48.758;8.888;2023-07-31T02:08:35;15.80;89.60
7708;DHT22;3896;48.758;8.888;2023-07-31T02:11:01;15.80;89.80
7708;DHT22;3896;48.758;8.888;2023-07-31T02:13:27;15.80;90.00
7708;DHT22;3896;48.758;8.888;2023-07-31T02:15:52;15.80;90.00
7708;DHT22;3896;48.758;8.888;2023-07-31T02:18:18;15.70;90.20
7708;DHT22;3896;48.758;8.888;2023-07-31T02:20:43;15.70;90.40
7708;DHT22;3896;48.758;8.888;2023-07-31T02:23:14;15.70;90.40
7708;DHT22;3896;48.758;8.888;2023-07-31T02:25:39;15.70;90.70
7708;DHT22;3896;48.758;8.888;2023-07-31T02:28:05;15.70;90.90
7708;DHT22;3896;48.758;8.888;2023-07-31T02:30:30;15.70;91.00
7708;DHT22;3896;48.758;8.888;2023-07-31T02:32:56;15.70;91.20
7708;DHT22;3896;48.758;8.888;2023-07-31T02:35:21;15.60;91.30
7708;DHT22;3896;48.758;8.888;2023-07-31T02:37:47;15.60;91.40
7708;DHT22;3896;48.758;8.888;2023-07-31T02:40:13;15.50;91.70
7708;DHT22;3896;48.758;8.888;2023-07-31T02:42:38;15.60;91.70
7708;DHT22;3896;48.758;8.888;2023-07-31T02:45:04;15.60;91.70
7708;DHT22;3896;48.758;8.888;2023-07-31T02:47:30;15.50;91.80
7708;DHT22;3896;48.758;8.888;2023-07-31T02:49:55;15.50;92.00
7708;DHT22;3896;48.758;8.888;2023-07-31T02:52:21;15.50;92.30
7708;DHT22;3896;48.758;8.888;2023-07-31T02:54:47;15.50;92.10
7708;DHT22;3896;48.758;8.888;2023-07-31T02:57:12;15.50;92.20
7708;DHT22;3896;48.758;8.888;2023-07-31T02:59:38;15.50;92.40
7708;DHT22;3896;48.758;8.888;2023-07-31T03:02:03;15.50;92.50
7708;DHT22;3896;48.758;8.888;2023-07-31T03:04:29;15.50;92.50
7708;DHT22;3896;48.758;8.888;2023-07-31T03:06:54;15.50;92.60
7708;DHT22;3896;48.758;8.888;2023-07-31T03:09:20;15.40;92.60
7708;DHT22;3896;48.758;8.888;2023-07-31T03:11:46;15.40;92.90
7708;DHT22;3896;48.758;8.888;2023-07-31T03:14:11;15.40;93.10
7708;DHT22;3896;48.758;8.888;2023-07-31T03:16:37;15.40;93.50
7708;DHT22;3896;48.758;8.888;2023-07-31T03:19:02;15.40;93.60
7708;DHT22;3896;48.758;8.888;2023-07-31T03:21:28;15.30;94.00
7708;DHT22;3896;48.758;8.888;2023-07-31T03:23:53;15.30;94.20
7708;DHT22;3896;48.758;8.888;2023-07-31T03:26:19;15.30;94.50
7708;DHT22;3896;48.758;8.888;2023-07-31T03:28:44;15.30;94.60
7708;DHT22;3896;48.758;8.888;2023-07-31T03:31:10;15.30;94.90
7708;DHT22;3896;48.758;8.888;2023-07-31T03:33:36;15.20;95.40
7708;DHT22;3896;48.758;8.888;2023-07-31T03:36:02;15.30;95.70
7708;DHT22;3896;48.758;8.888;2023-07-31T03:38:28;15.20;95.60
7708;DHT22;3896;48.758;8.888;2023-07-31T03:40:53;15.20;95.30
7708;DHT22;3896;48.758;8.888;2023-07-31T03:43:19;15.20;95.20
7708;DHT22;3896;48.758;8.888;2023-07-31T03:45:45;15.20;95.10
7708;DHT22;3896;48.758;8.888;2023-07-31T03:48:10;15.20;95.00
7708;DHT22;3896;48.758;8.888;2023-07-31T03:50:36;15.20;94.70
7708;DHT22;3896;48.758;8.888;2023-07-31T03:53:01;15.20;95.00
7708;DHT22;3896;48.758;8.888;2023-07-31T03:55:27;15.20;95.30
7708;DHT22;3896;48.758;8.888;2023-07-31T03:57:52;15.20;95.50
7708;DHT22;3896;48.758;8.888;2023-07-31T04:00:18;15.20;96.10
7708;DHT22;3896;48.758;8.888;2023-07-31T04:02:44;15.20;96.10
7708;DHT22;3896;48.758;8.888;2023-07-31T04:05:09;15.20;96.60
7708;DHT22;3896;48.758;8.888;2023-07-31T04:07:36;15.20;96.80
7708;DHT22;3896;48.758;8.888;2023-07-31T04:10:03;15.20;97.10
7708;DHT22;3896;48.758;8.888;2023-07-31T04:12:28;15.20;97.00
7708;DHT22;3896;48.758;8.888;2023-07-31T04:14:54;15.20;97.50
7708;DHT22;3896;48.758;8.888;2023-07-31T04:17:20;15.20;97.30
7708;DHT22;3896;48.758;8.888;2023-07-31T04:19:45;15.20;97.40
7708;DHT22;3896;48.758;8.888;2023-07-31T04:22:11;15.20;96.90
7708;DHT22;3896;48.758;8.888;2023-07-31T04:24:36;15.20;96.70
7708;DHT22;3896;48.758;8.888;2023-07-31T04:27:02;15.20;96.40
7708;DHT22;3896;48.758;8.888;2023-07-31T04:29:28;15.20;96.00
7708;DHT22;3896;48.758;8.888;2023-07-31T04:31:53;15.20;95.90
7708;DHT22;3896;48.758;8.888;2023-07-31T04:34:19;15.30;95.80
7708;DHT22;3896;48.758;8.888;2023-07-31T04:36:44;15.30;95.80
7708;DHT22;3896;48.758;8.888;2023-07-31T04:39:10;15.30;96.00
7708;DHT22;3896;48.758;8.888;2023-07-31T04:41:35;15.30;95.90
7708;DHT22;3896;48.758;8.888;2023-07-31T04:44:01;15.30;96.00
7708;DHT22;3896;48.758;8.888;2023-07-31T04:46:27;15.30;95.90
7708;DHT22;3896;48.758;8.888;2023-07-31T04:48:52;15.40;95.90
7708;DHT22;3896;48.758;8.888;2023-07-31T04:51:18;15.40;96.00
7708;DHT22;3896;48.758;8.888;2023-07-31T04:53:43;15.40;95.90
7708;DHT22;3896;48.758;8.888;2023-07-31T04:56:09;15.40;96.00
7708;DHT22;3896;48.758;8.888;2023-07-31T04:58:34;15.50;96.10
7708;DHT22;3896;48.758;8.888;2023-07-31T05:01:00;15.50;96.20
7708;DHT22;3896;48.758;8.888;2023-07-31T05:03:25;15.50;96.40
7708;DHT22;3896;48.758;8.888;2023-07-31T05:05:51;15.50;96.40
7708;DHT22;3896;48.758;8.888;2023-07-31T05:08:17;15.50;96.40
7708;DHT22;3896;48.758;8.888;2023-07-31T05:10:45;15.60;96.40
7708;DHT22;3896;48.758;8.888;2023-07-31T05:13:11;15.60;96.40
7708;DHT22;3896;48.758;8.888;2023-07-31T05:15:36;15.60;96.40
7708;DHT22;3896;48.758;8.888;2023-07-31T05:18:02;15.60;96.40
7708;DHT22;3896;48.758;8.888;2023-07-31T05:20:27;15.70;96.40
7708;DHT22;3896;48.758;8.888;2023-07-31T05:22:53;15.70;96.50
7708;DHT22;3896;48.758;8.888;2023-07-31T05:25:18;15.70;96.50
7708;DHT22;3896;48.758;8.888;2023-07-31T05:27:44;15.80;96.60
7708;DHT22;3896;48.758;8.888;2023-07-31T05:30:09;15.80;96.70
7708;DHT22;3896;48.758;8.888;2023-07-31T05:32:35;15.80;96.70
7708;DHT22;3896;48.758;8.888;2023-07-31T05:35:01;15.90;96.70
7708;DHT22;3896;48.758;8.888;2023-07-31T05:37:26;15.90;96.90
7708;DHT22;3896;48.758;8.888;2023-07-31T05:39:52;15.90;97.20
7708;DHT22;3896;48.758;8.888;2023-07-31T05:42:18;15.90;97.20
7708;DHT22;3896;48.758;8.888;2023-07-31T05:44:43;16.00;97.30
7708;DHT22;3896;48.758;8.888;2023-07-31T05:47:09;16.00;97.40
7708;DHT22;3896;48.758;8.888;2023-07-31T05:49:35;16.10;97.40
7708;DHT22;3896;48.758;8.888;2023-07-31T05:52:00;16.10;97.30
7708;DHT22;3896;48.758;8.888;2023-07-31T05:54:26;16.10;97.40
7708;DHT22;3896;48.758;8.888;2023-07-31T05:56:51;16.20;97.30
7708;DHT22;3896;48.758;8.888;2023-07-31T05:59:17;16.30;97.00
7708;DHT22;3896;48.758;8.888;2023-07-31T06:01:42;16.30;96.80
7708;DHT22;3896;48.758;8.888;2023-07-31T06:04:08;16.30;96.40
7708;DHT22;3896;48.758;8.888;2023-07-31T06:06:34;16.40;96.30
7708;DHT22;3896;48.758;8.888;2023-07-31T06:09:00;16.40;96.10
7708;DHT22;3896;48.758;8.888;2023-07-31T06:11:25;16.50;95.90
7708;DHT22;3896;48.758;8.888;2023-07-31T06:13:51;16.60;95.70
7708;DHT22;3896;48.758;8.888;2023-07-31T06:16:17;16.60;95.40
7708;DHT22;3896;48.758;8.888;2023-07-31T06:18:42;16.70;95.50
7708;DHT22;3896;48.758;8.888;2023-07-31T06:21:09;16.70;95.40
7708;DHT22;3896;48.758;8.888;2023-07-31T06:23:34;16.80;95.20
7708;DHT22;3896;48.758;8.888;2023-07-31T06:26:00;16.90;94.80
7708;DHT22;3896;48.758;8.888;2023-07-31T06:28:31;16.90;94.50
7708;DHT22;3896;48.758;8.888;2023-07-31T06:30:58;17.00;94.40
7708;DHT22;3896;48.758;8.888;2023-07-31T06:33:24;17.10;94.20
7708;DHT22;3896;48.758;8.888;2023-07-31T06:35:50;17.20;94.10
7708;DHT22;3896;48.758;8.888;2023-07-31T06:40:43;17.30;93.30
7708;DHT22;3896;48.758;8.888;2023-07-31T06:43:09;17.40;93.20
7708;DHT22;3896;48.758;8.888;2023-07-31T06:45:35;17.50;93.00
7708;DHT22;3896;48.758;8.888;2023-07-31T06:48:01;17.60;92.70
7708;DHT22;3896;48.758;8.888;2023-07-31T06:50:31;17.70;92.50
7708;DHT22;3896;48.758;8.888;2023-07-31T06:52:57;17.80;92.20
7708;DHT22;3896;48.758;8.888;2023-07-31T06:55:23;17.80;91.90
7708;DHT22;3896;48.758;8.888;2023-07-31T06:57:50;17.90;91.40
7708;DHT22;3896;48.758;8.888;2023-07-31T07:00:16;18.00;91.40
7708;DHT22;3896;48.758;8.888;2023-07-31T07:02:42;18.10;90.80
7708;DHT22;3896;48.758;8.888;2023-07-31T07:05:08;18.20;90.70
7708;DHT22;3896;48.758;8.888;2023-07-31T07:07:34;18.30;90.50
7708;DHT22;3896;48.758;8.888;2023-07-31T07:10:00;18.40;90.20
7708;DHT22;3896;48.758;8.888;2023-07-31T07:12:29;18.40;90.00
7708;DHT22;3896;48.758;8.888;2023-07-31T07:14:55;18.60;89.60
7708;DHT22;3896;48.758;8.888;2023-07-31T07:17:20;18.60;89.10
7708;DHT22;3896;48.758;8.888;2023-07-31T07:19:48;18.70;89.00
7708;DHT22;3896;48.758;8.888;2023-07-31T07:22:13;18.80;88.20
7708;DHT22;3896;48.758;8.888;2023-07-31T07:24:39;18.90;87.40
7708;DHT22;3896;48.758;8.888;2023-07-31T07:27:05;19.00;86.30
7708;DHT22;3896;48.758;8.888;2023-07-31T07:29:30;19.10;85.70
7708;DHT22;3896;48.758;8.888;2023-07-31T07:31:56;19.10;84.60
7708;DHT22;3896;48.758;8.888;2023-07-31T07:34:28;19.20;84.10
7708;DHT22;3896;48.758;8.888;2023-07-31T07:36:54;19.30;83.70
7708;DHT22;3896;48.758;8.888;2023-07-31T07:39:20;19.40;83.20
7708;DHT22;3896;48.758;8.888;2023-07-31T07:41:46;19.40;82.50
7708;DHT22;3896;48.758;8.888;2023-07-31T07:44:12;19.50;82.10
7708;DHT22;3896;48.758;8.888;2023-07-31T07:46:37;19.60;81.90
7708;DHT22;3896;48.758;8.888;2023-07-31T07:49:03;19.60;81.70
7708;DHT22;3896;48.758;8.888;2023-07-31T07:51:29;19.70;81.40
7708;DHT22;3896;48.758;8.888;2023-07-31T07:53:56;19.80;81.00
7708;DHT22;3896;48.758;8.888;2023-07-31T07:56:23;19.90;81.10
7708;DHT22;3896;48.758;8.888;2023-07-31T07:58:49;20.00;80.50
7708;DHT22;3896;48.758;8.888;2023-07-31T08:01:15;20.10;79.90
7708;DHT22;3896;48.758;8.888;2023-07-31T08:03:41;20.20;79.80
7708;DHT22;3896;48.758;8.888;2023-07-31T08:06:07;20.30;79.40
7708;DHT22;3896;48.758;8.888;2023-07-31T08:08:36;20.40;79.40
7708;DHT22;3896;48.758;8.888;2023-07-31T08:11:02;20.50;79.60
7708;DHT22;3896;48.758;8.888;2023-07-31T08:13:27;20.50;79.10
7708;DHT22;3896;48.758;8.888;2023-07-31T08:15:53;20.70;78.80
7708;DHT22;3896;48.758;8.888;2023-07-31T08:18:19;20.80;77.90
7708;DHT22;3896;48.758;8.888;2023-07-31T08:20:44;20.90;76.70
7708;DHT22;3896;48.758;8.888;2023-07-31T08:23:10;21.10;76.40
7708;DHT22;3896;48.758;8.888;2023-07-31T08:25:36;21.20;76.40
7708;DHT22;3896;48.758;8.888;2023-07-31T08:28:02;21.30;75.90
7708;DHT22;3896;48.758;8.888;2023-07-31T08:30:28;21.40;75.20
7708;DHT22;3896;48.758;8.888;2023-07-31T08:32:54;21.50;74.70
7708;DHT22;3896;48.758;8.888;2023-07-31T08:35:20;21.60;74.80
7708;DHT22;3896;48.758;8.888;2023-07-31T08:37:45;21.70;74.40
7708;DHT22;3896;48.758;8.888;2023-07-31T08:40:11;21.80;74.10
7708;DHT22;3896;48.758;8.888;2023-07-31T08:42:47;21.80;73.00
7708;DHT22;3896;48.758;8.888;2023-07-31T08:45:18;21.90;72.80
7708;DHT22;3896;48.758;8.888;2023-07-31T08:47:49;21.90;72.00
7708;DHT22;3896;48.758;8.888;2023-07-31T08:50:16;22.00;71.40
7708;DHT22;3896;48.758;8.888;2023-07-31T08:52:41;22.10;71.40
7708;DHT22;3896;48.758;8.888;2023-07-31T08:55:07;22.20;71.70
7708;DHT22;3896;48.758;8.888;2023-07-31T08:57:35;22.20;71.00
7708;DHT22;3896;48.758;8.888;2023-07-31T09:00:03;22.30;70.90
7708;DHT22;3896;48.758;8.888;2023-07-31T09:05:11;22.30;69.60
7708;DHT22;3896;48.758;8.888;2023-07-31T09:07:37;22.40;68.90
7708;DHT22;3896;48.758;8.888;2023-07-31T09:10:04;22.40;69.20
7708;DHT22;3896;48.758;8.888;2023-07-31T09:12:30;22.40;70.40
7708;DHT22;3896;48.758;8.888;2023-07-31T09:15:00;22.50;70.10
7708;DHT22;3896;48.758;8.888;2023-07-31T09:17:30;22.50;69.40
7708;DHT22;3896;48.758;8.888;2023-07-31T09:19:56;22.50;68.70
7708;DHT22;3896;48.758;8.888;2023-07-31T09:22:32;22.50;68.20
7708;DHT22;3896;48.758;8.888;2023-07-31T09:25:14;22.50;68.50
7708;DHT22;3896;48.758;8.888;2023-07-31T09:27:50;22.60;68.30
7708;DHT22;3896;48.758;8.888;2023-07-31T09:30:18;22.60;68.10
7708;DHT22;3896;48.758;8.888;2023-07-31T09:32:45;22.60;68.10
7708;DHT22;3896;48.758;8.888;2023-07-31T09:35:20;22.70;68.90
7708;DHT22;3896;48.758;8.888;2023-07-31T09:37:51;22.70;68.60
7708;DHT22;3896;48.758;8.888;2023-07-31T09:42:54;22.80;67.10
7708;DHT22;3896;48.758;8.888;2023-07-31T09:45:19;22.80;66.30
7708;DHT22;3896;48.758;8.888;2023-07-31T09:47:48;22.90;65.80
7708;DHT22;3896;48.758;8.888;2023-07-31T09:50:14;22.90;65.90
7708;DHT22;3896;48.758;8.888;2023-07-31T09:52:41;23.00;66.60
7708;DHT22;3896;48.758;8.888;2023-07-31T09:55:07;23.00;66.80
7708;DHT22;3896;48.758;8.888;2023-07-31T09:57:33;23.10;66.40
7708;DHT22;3896;48.758;8.888;2023-07-31T09:59:59;23.10;65.70
7708;DHT22;3896;48.758;8.888;2023-07-31T10:02:25;23.20;65.90
7708;DHT22;3896;48.758;8.888;2023-07-31T10:04:54;23.30;65.50
7708;DHT22;3896;48.758;8.888;2023-07-31T10:07:24;23.40;65.60
7708;DHT22;3896;48.758;8.888;2023-07-31T10:09:51;23.50;64.80
7708;DHT22;3896;48.758;8.888;2023-07-31T10:12:19;23.70;64.20
7708;DHT22;3896;48.758;8.888;2023-07-31T10:14:46;23.80;63.30
7708;DHT22;3896;48.758;8.888;2023-07-31T10:17:13;24.00;63.80
7708;DHT22;3896;48.758;8.888;2023-07-31T10:19:40;24.10;62.80
7708;DHT22;3896;48.758;8.888;2023-07-31T10:22:06;24.30;61.80
7708;DHT22;3896;48.758;8.888;2023-07-31T10:24:33;24.40;60.80
7708;DHT22;3896;48.758;8.888;2023-07-31T10:27:00;24.60;60.80
7708;DHT22;3896;48.758;8.888;2023-07-31T10:29:27;24.80;60.10
7708;DHT22;3896;48.758;8.888;2023-07-31T10:31:57;25.00;60.50
7708;DHT22;3896;48.758;8.888;2023-07-31T10:34:24;25.10;60.00
7708;DHT22;3896;48.758;8.888;2023-07-31T10:36:49;25.30;59.30
7708;DHT22;3896;48.758;8.888;2023-07-31T10:39:36;25.50;59.50
7708;DHT22;3896;48.758;8.888;2023-07-31T10:42:11;25.70;59.70
7708;DHT22;3896;48.758;8.888;2023-07-31T10:44:37;25.80;59.70
7708;DHT22;3896;48.758;8.888;2023-07-31T10:47:02;25.90;58.90
7708;DHT22;3896;48.758;8.888;2023-07-31T10:49:29;26.00;58.50
7708;DHT22;3896;48.758;8.888;2023-07-31T10:51:57;26.10;58.10
7708;DHT22;3896;48.758;8.888;2023-07-31T10:54:22;26.10;57.80
7708;DHT22;3896;48.758;8.888;2023-07-31T10:56:51;26.10;57.90
7708;DHT22;3896;48.758;8.888;2023-07-31T10:59:17;26.10;57.90
7708;DHT22;3896;48.758;8.888;2023-07-31T11:01:56;26.20;57.50
7708;DHT22;3896;48.758;8.888;2023-07-31T11:04:28;26.20;57.50
7708;DHT22;3896;48.758;8.888;2023-07-31T11:06:58;26.30;56.90
7708;DHT22;3896;48.758;8.888;2023-07-31T11:09:31;26.40;56.70
7708;DHT22;3896;48.758;8.888;2023-07-31T11:11:58;26.40;56.50
7708;DHT22;3896;48.758;8.888;2023-07-31T11:14:24;26.50;56.20
7708;DHT22;3896;48.758;8.888;2023-07-31T11:16:50;26.50;55.90
7708;DHT22;3896;48.758;8.888;2023-07-31T11:19:26;26.50;55.90
7708;DHT22;3896;48.758;8.888;2023-07-31T11:21:52;26.40;55.80
7708;DHT22;3896;48.758;8.888;2023-07-31T11:24:18;26.40;55.50
7708;DHT22;3896;48.758;8.888;2023-07-31T11:26:53;26.40;55.70
7708;DHT22;3896;48.758;8.888;2023-07-31T11:29:20;26.40;56.00
7708;DHT22;3896;48.758;8.888;2023-07-31T11:31:47;26.40;56.00
7708;DHT22;3896;48.758;8.888;2023-07-31T11:34:13;26.40;56.10
7708;DHT22;3896;48.758;8.888;2023-07-31T11:36:39;26.40;56.20
7708;DHT22;3896;48.758;8.888;2023-07-31T11:39:05;26.40;55.70
7708;DHT22;3896;48.758;8.888;2023-07-31T11:41:32;26.40;55.70
7708;DHT22;3896;48.758;8.888;2023-07-31T11:44:01;26.40;55.60
7708;DHT22;3896;48.758;8.888;2023-07-31T11:46:30;26.40;56.00
7708;DHT22;3896;48.758;8.888;2023-07-31T11:48:59;26.40;55.30
7708;DHT22;3896;48.758;8.888;2023-07-31T11:51:25;26.40;54.60
7708;DHT22;3896;48.758;8.888;2023-07-31T11:53:54;26.50;54.10
7708;DHT22;3896;48.758;8.888;2023-07-31T11:56:21;26.50;54.40
7708;DHT22;3896;48.758;8.888;2023-07-31T11:58:55;26.50;54.50
7708;DHT22;3896;48.758;8.888;2023-07-31T12:01:22;26.40;54.80
7708;DHT22;3896;48.758;8.888;2023-07-31T12:03:52;26.40;54.70
7708;DHT22;3896;48.758;8.888;2023-07-31T12:06:18;26.40;54.40
7708;DHT22;3896;48.758;8.888;2023-07-31T12:08:46;26.40;54.80
7708;DHT22;3896;48.758;8.888;2023-07-31T12:11:11;26.40;54.60
7708;DHT22;3896;48.758;8.888;2023-07-31T12:13:38;26.40;54.20
7708;DHT22;3896;48.758;8.888;2023-07-31T12:16:04;26.40;54.10
7708;DHT22;3896;48.758;8.888;2023-07-31T12:18:34;26.40;54.20
7708;DHT22;3896;48.758;8.888;2023-07-31T12:21:02;26.30;54.20
7708;DHT22;3896;48.758;8.888;2023-07-31T12:23:31;26.30;54.00
7708;DHT22;3896;48.758;8.888;2023-07-31T12:26:01;26.30;54.30
7708;DHT22;3896;48.758;8.888;2023-07-31T12:28:26;26.30;54.70
7708;DHT22;3896;48.758;8.888;2023-07-31T12:30:57;26.30;55.00
7708;DHT22;3896;48.758;8.888;2023-07-31T12:33:23;26.30;55.10
7708;DHT22;3896;48.758;8.888;2023-07-31T12:35:49;26.30;54.80
7708;DHT22;3896;48.758;8.888;2023-07-31T12:38:14;26.30;55.10
7708;DHT22;3896;48.758;8.888;2023-07-31T12:40:41;26.30;55.10
7708;DHT22;3896;48.758;8.888;2023-07-31T12:43:07;26.30;54.60
7708;DHT22;3896;48.758;8.888;2023-07-31T12:45:34;26.30;54.10
7708;DHT22;3896;48.758;8.888;2023-07-31T12:48:00;26.40;53.80
7708;DHT22;3896;48.758;8.888;2023-07-31T12:50:26;26.40;53.60
7708;DHT22;3896;48.758;8.888;2023-07-31T12:52:55;26.40;54.10
7708;DHT22;3896;48.758;8.888;2023-07-31T12:55:21;26.50;54.50
7708;DHT22;3896;48.758;8.888;2023-07-31T12:57:47;26.50;54.50
7708;DHT22;3896;48.758;8.888;2023-07-31T13:00:13;26.50;54.40
7708;DHT22;3896;48.758;8.888;2023-07-31T13:02:39;26.60;54.00
7708;DHT22;3896;48.758;8.888;2023-07-31T13:05:04;26.60;53.20
7708;DHT22;3896;48.758;8.888;2023-07-31T13:07:30;26.70;53.40
7708;DHT22;3896;48.758;8.888;2023-07-31T13:09:56;26.70;53.60
7708;DHT22;3896;48.758;8.888;2023-07-31T13:12:21;26.80;53.80
7708;DHT22;3896;48.758;8.888;2023-07-31T13:14:47;26.80;54.10
7708;DHT22;3896;48.758;8.888;2023-07-31T13:17:12;26.80;54.50
7708;DHT22;3896;48.758;8.888;2023-07-31T13:19:38;26.90;55.00
7708;DHT22;3896;48.758;8.888;2023-07-31T13:22:04;26.90;54.30
7708;DHT22;3896;48.758;8.888;2023-07-31T13:24:29;26.90;53.80
7708;DHT22;3896;48.758;8.888;2023-07-31T13:26:56;27.00;53.60
7708;DHT22;3896;48.758;8.888;2023-07-31T13:29:22;27.00;53.60
7708;DHT22;3896;48.758;8.888;2023-07-31T13:31:47;27.00;53.70
7708;DHT22;3896;48.758;8.888;2023-07-31T13:34:13;27.00;54.00
7708;DHT22;3896;48.758;8.888;2023-07-31T13:36:38;27.00;53.70
7708;DHT22;3896;48.758;8.888;2023-07-31T13:39:04;27.00;53.60
7708;DHT22;3896;48.758;8.888;2023-07-31T13:41:30;27.00;53.90
7708;DHT22;3896;48.758;8.888;2023-07-31T13:43:55;27.00;53.50
7708;DHT22;3896;48.758;8.888;2023-07-31T13:46:21;27.00;53.90
7708;DHT22;3896;48.758;8.888;2023-07-31T13:48:46;27.10;54.30
7708;DHT22;3896;48.758;8.888;2023-07-31T13:51:12;27.00;54.30
7708;DHT22;3896;48.758;8.888;2023-07-31T13:53:37;27.00;54.20
7708;DHT22;3896;48.758;8.888;2023-07-31T13:56:03;27.00;54.00
7708;DHT22;3896;48.758;8.888;2023-07-31T13:58:28;27.00;53.90
7708;DHT22;3896;48.758;8.888;2023-07-31T14:00:54;27.00;54.00
7708;DHT22;3896;48.758;8.888;2023-07-31T14:03:19;26.90;54.00
7708;DHT22;3896;48.758;8.888;2023-07-31T14:05:45;26.90;54.50
7708;DHT22;3896;48.758;8.888;2023-07-31T14:08:11;26.90;54.10
7708;DHT22;3896;48.758;8.888;2023-07-31T14:10:36;26.90;53.70
7708;DHT22;3896;48.758;8.888;2023-07-31T14:13:02;26.90;53.60
7708;DHT22;3896;48.758;8.888;2023-07-31T14:15:27;26.90;53.80
7708;DHT22;3896;48.758;8.888;2023-07-31T14:17:53;26.90;53.80
7708;DHT22;3896;48.758;8.888;2023-07-31T14:20:19;26.90;54.10
7708;DHT22;3896;48.758;8.888;2023-07-31T14:22:45;26.90;53.40
7708;DHT22;3896;48.758;8.888;2023-07-31T14:25:10;26.90;53.50
7708;DHT22;3896;48.758;8.888;2023-07-31T14:27:36;27.00;53.30
7708;DHT22;3896;48.758;8.888;2023-07-31T14:30:03;27.00;53.20
7708;DHT22;3896;48.758;8.888;2023-07-31T14:32:28;27.00;53.40
7708;DHT22;3896;48.758;8.888;2023-07-31T14:34:54;27.00;53.50
7708;DHT22;3896;48.758;8.888;2023-07-31T14:37:20;27.00;53.30
7708;DHT22;3896;48.758;8.888;2023-07-31T14:39:46;27.10;53.40
7708;DHT22;3896;48.758;8.888;2023-07-31T14:42:11;27.00;53.50
7708;DHT22;3896;48.758;8.888;2023-07-31T14:44:37;27.10;53.60
7708;DHT22;3896;48.758;8.888;2023-07-31T14:47:03;27.00;53.50
7708;DHT22;3896;48.758;8.888;2023-07-31T14:49:28;27.00;53.50
7708;DHT22;3896;48.758;8.888;2023-07-31T14:51:54;27.00;53.40
7708;DHT22;3896;48.758;8.888;2023-07-31T14:54:20;27.00;52.90
7708;DHT22;3896;48.758;8.888;2023-07-31T14:56:45;26.90;52.80
7708;DHT22;3896;48.758;8.888;2023-07-31T14:59:11;26.90;52.90
7708;DHT22;3896;48.758;8.888;2023-07-31T15:01:37;26.90;52.70
7708;DHT22;3896;48.758;8.888;2023-07-31T15:04:03;26.90;52.80
7708;DHT22;3896;48.758;8.888;2023-07-31T15:06:28;26.80;53.10
7708;DHT22;3896;48.758;8.888;2023-07-31T15:08:54;26.80;53.00
7708;DHT22;3896;48.758;8.888;2023-07-31T15:11:19;26.80;53.00
7708;DHT22;3896;48.758;8.888;2023-07-31T15:13:45;26.70;53.20
7708;DHT22;3896;48.758;8.888;2023-07-31T15:16:11;26.70;53.50
7708;DHT22;3896;48.758;8.888;2023-07-31T15:18:36;26.60;53.70
7708;DHT22;3896;48.758;8.888;2023-07-31T15:21:02;26.60;53.60
7708;DHT22;3896;48.758;8.888;2023-07-31T15:23:28;26.70;53.30
7708;DHT22;3896;48.758;8.888;2023-07-31T15:25:53;26.70;53.00
7708;DHT22;3896;48.758;8.888;2023-07-31T15:28:19;26.70;53.40
7708;DHT22;3896;48.758;8.888;2023-07-31T15:30:44;26.60;53.40
7708;DHT22;3896;48.758;8.888;2023-07-31T15:33:10;26.70;53.30
7708;DHT22;3896;48.758;8.888;2023-07-31T15:35:35;26.60;53.10
7708;DHT22;3896;48.758;8.888;2023-07-31T15:38:01;26.60;53.20
7708;DHT22;3896;48.758;8.888;2023-07-31T15:40:27;26.70;53.70
7708;DHT22;3896;48.758;8.888;2023-07-31T15:42:52;26.70;53.90
7708;DHT22;3896;48.758;8.888;2023-07-31T15:45:18;26.60;54.00
7708;DHT22;3896;48.758;8.888;2023-07-31T15:47:43;26.70;54.30
7708;DHT22;3896;48.758;8.888;2023-07-31T15:50:09;26.60;53.90
7708;DHT22;3896;48.758;8.888;2023-07-31T15:52:35;26.70;53.80
7708;DHT22;3896;48.758;8.888;2023-07-31T15:55:00;26.70;53.80
7708;DHT22;3896;48.758;8.888;2023-07-31T15:57:26;26.70;53.60
7708;DHT22;3896;48.758;8.888;2023-07-31T15:59:52;26.80;53.80
7708;DHT22;3896;48.758;8.888;2023-07-31T16:02:17;26.80;53.50
7708;DHT22;3896;48.758;8.888;2023-07-31T16:04:43;26.70;53.30
7708;DHT22;3896;48.758;8.888;2023-07-31T16:07:08;26.80;53.20